Hermiston, OR

2:38 AM PDT on October 26, 2014 (GMT -0700)
Tri-Cities | Change Station
CLOSE
Current Station
Airport
Location: Pasco,
Elevation: 407 ft
Nearby Weather Stations
Active Advisory: Wind Advisory

Elev 407 ft 46.26 °N, 119.12 °W | Updated 45 minutes ago

Mostly Cloudy
Mostly Cloudy
54 °F
Feels Like 54 °F
N
22
Wind Variable Wind from SW

Today
High -- | Low -- °F
--% Chance of Precip.
Yesterday
High -- | Low -- °F
Precip. -- in
7:29 AM 5:52 PM
Waxing Crescent, 7% visible
Pressure 29.85 in
Visibility 10.0 miles
Clouds Clear
Dew Point 43 °F
Humidity 66%
Rainfall 0.00 in
Snow Depth Not available.
UV 0 out of 12
Pollen 1.70 out of 12
Air Quality Not available.
Flu Activity Sporadic
METAR KPSC 260853Z AUTO 23019KT 10SM CLR 12/06 A2985 RMK AO2 SLP108 T01220061 51043

More Conditions Fewer Conditions

Pressure 29.85 in
Visibility 10.0 miles
Clouds Clear
Dew Point 43 °F
Humidity 66%
Rainfall 0.00 in
Snow Depth Not available.
UV 0 out of 12
Pollen 1.70 out of 12
Air Quality Not available.
Flu Activity Sporadic
METAR KPSC 260853Z AUTO 23019KT 10SM CLR 12/06 A2985 RMK AO2 SLP108 T01220061 51043

More Conditions Fewer Conditions

10-Day Weather Forecast

Almanac

Astronomy

Oct. 26, 2014 Rise Set
Actual Time 7:29 AM PDT 5:52 PM PDT
Civil Twilight 6:58 AM PDT 6:23 PM PDT
Nautical Twilight 6:23 AM PDT 6:57 PM PDT
Astronomical Twilight 5:48 AM PDT 7:32 PM PDT
Moon 10:17 AM PDT 8:02 PM PDT
Length of Visible Light 11h 24m
Length of Day
10h 23m
Tomorrow will be 2m 59s shorter.
Waxing Crescent, 7% of the Moon is Illuminated
Today
Waxing Crescent
Oct 30
First Quarter
Nov 6
Full
Nov 14
Last Quarter
Nov 22
New

Today's Extremes

State Highs State Lows

Community

WunderPhotos

Upload Photos

1,765,130 photos uploaded!

Nearby

Snow Depth

Station Depth Elevation
Lucky Strike 2 in 5050 ft
Emigrant Springs 2 in 3925 ft
Arbuckle Mountain 0 in 5400 ft
Bowman Springs 0 in 4580 ft
Madison Butte 0 in 5250 ft

Earthquake Activity

City Distance Mag. Time & Date
No recent earthquake activity has been reported nearby.
Minimum magnitude displayed is 2.5.

Coastal Water Temperatures

Place Temperature
No Stations Reporting

Nearby Weather Stations